Time;durP1;ratioP1;P1;durP2;ratioP2;P2;SDS_P1;SDS_P2;PMS_P1;PMS_P2;Temp;Humidity;BMP_temperature;BMP_pressure;BME280_temperature;BME280_humidity;BME280_pressure;Samples;Min_cycle;Max_cycle;Signal;HPM_P1;HPM_P2
2021/06/07 00:04:17;;;;;;;3.47;3.10;;;21.70;45.60;;;;;;10435218;28;20229;-79
2021/06/07 00:09:20;;;;;;;3.40;3.10;;;21.70;45.90;;;;;;10440755;28;20633;-80
2021/06/07 00:14:28;;;;;;;2.90;2.70;;;21.70;45.60;;;;;;10433502;28;20232;-80
2021/06/07 00:19:35;;;;;;;3.60;3.40;;;21.70;45.90;;;;;;10438437;28;20312;-79
2021/06/07 00:24:38;;;;;;;2.93;2.73;;;21.70;46.80;;;;;;10430846;28;20308;-80
2021/06/07 00:29:41;;;;;;;2.47;2.37;;;21.70;45.50;;;;;;10435532;28;20636;-80
2021/06/07 00:34:45;;;;;;;3.50;3.30;;;21.70;45.50;;;;;;10432273;28;20716;-80
2021/06/07 00:39:48;;;;;;;3.07;2.87;;;21.70;45.90;;;;;;10430822;28;20223;-80
2021/06/07 00:44:50;;;;;;;3.53;3.33;;;21.70;45.60;;;;;;10437865;28;20233;-80
2021/06/07 00:49:54;;;;;;;4.00;3.80;;;21.70;45.70;;;;;;10440870;28;20223;-80
2021/06/07 00:54:57;;;;;;;3.90;3.70;;;21.70;46.00;;;;;;10425865;28;20237;-79
2021/06/07 01:00:00;;;;;;;4.17;3.87;;;21.60;45.80;;;;;;10444874;28;20231;-79
2021/06/07 01:05:05;;;;;;;4.40;4.10;;;21.50;45.80;;;;;;10440804;28;20729;-79
2021/06/07 01:10:09;;;;;;;5.50;4.67;;;21.50;46.50;;;;;;10423807;28;20244;-80
2021/06/07 01:15:13;;;;;;;5.00;4.70;;;21.50;46.20;;;;;;10434678;28;20233;-79
2021/06/07 01:20:20;;;;;;;5.57;5.17;;;21.40;46.30;;;;;;10436800;28;20312;-79
2021/06/07 01:25:27;;;;;;;6.03;5.23;;;21.40;46.80;;;;;;10433931;28;20239;-79
2021/06/07 01:30:32;;;;;;;5.47;5.10;;;21.30;46.70;;;;;;10429047;28;20222;-80
2021/06/07 01:35:36;;;;;;;5.80;5.07;;;21.20;46.70;;;;;;10425175;28;20243;-80
2021/06/07 01:40:42;;;;;;;5.37;4.97;;;21.20;46.50;;;;;;10427437;28;20268;-79
2021/06/07 01:45:48;;;;;;;5.30;4.80;;;21.10;46.90;;;;;;10431548;28;20232;-80
2021/06/07 01:50:53;;;;;;;5.77;5.27;;;21.00;46.90;;;;;;10434453;28;20712;-80
2021/06/07 01:56:01;;;;;;;5.53;5.13;;;21.00;46.90;;;;;;10429104;28;20311;-79
2021/06/07 02:01:06;;;;;;;6.23;5.83;;;21.00;47.20;;;;;;10443738;28;20332;-79
2021/06/07 02:06:12;;;;;;;5.70;5.30;;;21.00;47.10;;;;;;10431303;28;20295;-79
2021/06/07 02:11:20;;;;;;;5.27;4.87;;;21.00;47.10;;;;;;10440838;28;20229;-79
2021/06/07 02:16:24;;;;;;;5.17;4.80;;;20.90;47.10;;;;;;10432540;28;20225;-79
2021/06/07 02:21:28;;;;;;;6.27;5.80;;;21.00;46.80;;;;;;10441928;28;20224;-79
2021/06/07 02:26:33;;;;;;;5.57;5.17;;;21.00;46.60;;;;;;10437784;28;20225;-79
2021/06/07 02:31:36;;;;;;;5.90;5.50;;;20.90;46.70;;;;;;10447129;28;20311;-80
2021/06/07 02:36:41;;;;;;;5.83;5.23;;;20.80;46.30;;;;;;10440780;28;20262;-80
2021/06/07 02:41:45;;;;;;;6.70;6.20;;;20.80;46.60;;;;;;10437110;28;20718;-79
2021/06/07 02:46:48;;;;;;;6.33;5.83;;;20.70;46.80;;;;;;10439170;28;20725;-79
2021/06/07 02:51:51;;;;;;;6.90;6.40;;;20.70;46.50;;;;;;10436431;28;20737;-79
2021/06/07 02:56:55;;;;;;;7.33;6.73;;;20.70;46.80;;;;;;10445232;28;20320;-80
2021/06/07 03:01:58;;;;;;;7.37;6.77;;;20.70;47.10;;;;;;10438909;28;20308;-80
2021/06/07 03:07:00;;;;;;;7.83;7.20;;;20.60;46.70;;;;;;10436851;28;20350;-80
2021/06/07 03:12:06;;;;;;;6.87;6.33;;;20.60;46.90;;;;;;10432513;28;20225;-79
2021/06/07 03:17:09;;;;;;;7.37;6.80;;;20.60;47.40;;;;;;10437402;28;20255;-79
2021/06/07 03:22:12;;;;;;;7.43;6.83;;;20.60;47.00;;;;;;10431430;28;20266;-80
2021/06/07 03:27:17;;;;;;;6.50;6.00;;;20.60;47.00;;;;;;10436485;28;20599;-80
2021/06/07 03:32:19;;;;;;;6.10;5.57;;;20.60;47.00;;;;;;10435469;28;20752;-80
2021/06/07 03:37:22;;;;;;;5.57;5.17;;;20.70;46.90;;;;;;10414466;28;20229;-79
2021/06/07 03:42:26;;;;;;;5.90;5.50;;;20.70;46.80;;;;;;10396962;28;20221;-79
2021/06/07 03:47:29;;;;;;;6.17;5.70;;;20.70;47.00;;;;;;10397919;28;20225;-79
2021/06/07 03:52:32;;;;;;;6.40;5.83;;;20.70;46.80;;;;;;10397449;28;20923;-80
2021/06/07 03:57:36;;;;;;;6.03;5.53;;;20.80;46.70;;;;;;10401679;28;20240;-80
2021/06/07 04:02:39;;;;;;;7.17;6.67;;;20.80;46.80;;;;;;10393514;28;20226;-79
2021/06/07 04:07:43;;;;;;;5.20;4.87;;;20.80;46.50;;;;;;10397446;28;20232;-80
2021/06/07 04:12:48;;;;;;;5.80;5.40;;;20.80;46.50;;;;;;10397087;28;20230;-79
2021/06/07 04:17:52;;;;;;;6.37;5.83;;;20.80;46.80;;;;;;10401497;28;20235;-79
2021/06/07 04:22:55;;;;;;;4.90;4.50;;;20.80;46.80;;;;;;10399090;28;20221;-79
2021/06/07 04:28:01;;;;;;;4.90;4.60;;;20.80;46.70;;;;;;10392999;28;20602;-79
2021/06/07 04:33:04;;;;;;;6.20;5.70;;;20.80;46.80;;;;;;10400118;28;20218;-79
2021/06/07 04:38:07;;;;;;;5.67;5.27;;;20.80;46.80;;;;;;10397316;28;20236;-79
2021/06/07 04:43:13;;;;;;;6.37;5.90;;;20.80;46.70;;;;;;10393290;28;20234;-79
2021/06/07 04:48:16;;;;;;;6.33;5.83;;;20.80;47.30;;;;;;10394332;28;20789;-79
2021/06/07 04:53:19;;;;;;;6.00;5.60;;;20.80;46.90;;;;;;10389566;28;20605;-79
2021/06/07 04:58:27;;;;;;;6.50;5.90;;;20.80;47.20;;;;;;10395530;28;20240;-79
2021/06/07 05:03:30;;;;;;;7.50;6.87;;;20.80;47.70;;;;;;10397559;28;20316;-81
2021/06/07 05:08:33;;;;;;;7.20;6.60;;;20.80;47.30;;;;;;10403357;28;20230;-80
2021/06/07 05:13:37;;;;;;;7.70;7.00;;;20.80;47.50;;;;;;10389842;28;20257;-80
2021/06/07 05:18:40;;;;;;;6.80;6.20;;;20.90;47.80;;;;;;10393171;28;20232;-80
2021/06/07 05:23:43;;;;;;;6.00;5.60;;;20.80;47.50;;;;;;10391129;28;20225;-79
2021/06/07 05:28:47;;;;;;;5.37;4.97;;;20.80;47.50;;;;;;10410864;28;20845;-79
2021/06/07 05:33:50;;;;;;;4.90;4.50;;;20.80;47.80;;;;;;10432550;28;20578;-79
2021/06/07 05:38:53;;;;;;;4.43;4.13;;;20.80;47.50;;;;;;10440478;28;20217;-76
2021/06/07 05:43:57;;;;;;;4.47;4.17;;;20.90;47.70;;;;;;10424209;28;20242;-81
2021/06/07 05:48:59;;;;;;;5.20;4.83;;;20.80;48.00;;;;;;10435253;28;20249;-81
2021/06/07 05:54:02;;;;;;;4.97;4.67;;;20.90;47.80;;;;;;10425167;28;20221;-80
2021/06/07 05:59:07;;;;;;;4.90;4.60;;;20.90;48.00;;;;;;10426183;28;20225;-80
2021/06/07 06:04:10;;;;;;;4.67;4.00;;;20.90;48.30;;;;;;10420861;28;20239;-77
2021/06/07 06:09:13;;;;;;;4.90;4.50;;;21.00;48.10;;;;;;10431034;28;20228;-83
2021/06/07 06:14:17;;;;;;;4.93;4.43;;;21.00;48.10;;;;;;10441082;28;20234;-83
2021/06/07 06:19:22;;;;;;;4.60;4.30;;;21.10;48.20;;;;;;10428886;28;20233;-82
2021/06/07 06:24:25;;;;;;;4.83;4.50;;;21.20;48.20;;;;;;10433256;28;20233;-84
2021/06/07 06:29:30;;;;;;;5.13;4.73;;;21.20;48.10;;;;;;10423472;28;20232;-83
2021/06/07 06:34:32;;;;;;;5.50;5.10;;;21.30;48.10;;;;;;10439028;28;20781;-83
2021/06/07 06:39:36;;;;;;;5.33;4.93;;;21.40;48.20;;;;;;10444609;28;20315;-83
2021/06/07 06:44:40;;;;;;;6.17;5.67;;;21.50;48.40;;;;;;10438753;28;20323;-83
2021/06/07 06:49:42;;;;;;;6.03;5.63;;;21.60;48.10;;;;;;10433309;28;20225;-83
2021/06/07 06:54:45;;;;;;;6.77;6.27;;;21.80;48.20;;;;;;10441738;28;20243;-83
2021/06/07 06:59:49;;;;;;;6.23;5.77;;;21.90;47.90;;;;;;10435047;28;20233;-82
2021/06/07 07:04:52;;;;;;;5.60;5.20;;;22.00;47.60;;;;;;10436080;28;20227;-83
2021/06/07 07:09:55;;;;;;;4.67;4.37;;;22.10;47.70;;;;;;10431278;28;20252;-83
2021/06/07 07:14:59;;;;;;;4.37;4.07;;;22.20;47.80;;;;;;10429451;28;20227;-82
2021/06/07 07:20:02;;;;;;;3.87;3.60;;;22.30;47.50;;;;;;10437650;28;20232;-82
2021/06/07 07:25:05;;;;;;;4.20;3.90;;;22.40;47.40;;;;;;10444110;28;20245;-82
2021/06/07 07:30:12;;;;;;;3.93;3.63;;;22.50;47.10;;;;;;10406790;28;20230;-82
2021/06/07 07:35:16;;;;;;;4.60;4.20;;;22.60;47.00;;;;;;10398740;28;20229;-82
2021/06/07 07:40:20;;;;;;;4.70;4.30;;;22.70;46.80;;;;;;10403914;28;20316;-83
2021/06/07 07:45:27;;;;;;;3.70;3.40;;;22.80;46.50;;;;;;10400617;28;20559;-82
2021/06/07 07:50:31;;;;;;;2.80;2.60;;;22.90;45.50;;;;;;10399126;28;20760;-82
2021/06/07 07:55:34;;;;;;;3.40;3.10;;;23.00;46.00;;;;;;10398405;28;20264;-82
2021/06/07 08:00:41;;;;;;;3.70;3.40;;;23.10;45.90;;;;;;10403796;28;20222;-83
2021/06/07 08:05:44;;;;;;;3.00;2.80;;;23.20;45.20;;;;;;10393289;28;20237;-80
2021/06/07 08:10:47;;;;;;;3.27;2.73;;;23.30;45.70;;;;;;10403413;28;20309;-80
2021/06/07 08:15:52;;;;;;;2.80;2.60;;;23.50;45.80;;;;;;10398469;28;20923;-81
2021/06/07 08:20:55;;;;;;;2.07;1.97;;;23.70;44.60;;;;;;10394866;28;20217;-77
2021/06/07 08:25:57;;;;;;;1.53;1.43;;;23.90;45.10;;;;;;10392120;28;20231;-81
2021/06/07 08:31:02;;;;;;;1.43;1.20;;;24.00;44.50;;;;;;10398162;28;20232;-80
2021/06/07 08:36:06;;;;;;;1.20;1.20;;;24.10;43.20;;;;;;10391878;28;20234;-80
2021/06/07 08:41:09;;;;;;;1.13;1.13;;;24.30;42.90;;;;;;10391765;28;20234;-80
2021/06/07 08:46:14;;;;;;;1.03;1.03;;;24.40;43.10;;;;;;10390187;28;20661;-80
2021/06/07 08:51:17;;;;;;;1.30;1.30;;;24.50;42.00;;;;;;10391414;28;20218;-80
2021/06/07 08:56:19;;;;;;;1.43;1.37;;;24.60;43.00;;;;;;10400327;28;20709;-80
2021/06/07 09:01:24;;;;;;;1.60;1.50;;;24.70;42.60;;;;;;10434163;28;20225;-80
2021/06/07 09:06:27;;;;;;;1.40;1.30;;;24.80;41.60;;;;;;10434861;28;20581;-80
2021/06/07 09:11:31;;;;;;;1.20;1.20;;;24.90;42.10;;;;;;10441515;28;20221;-80
2021/06/07 09:16:39;;;;;;;1.50;1.40;;;25.00;41.80;;;;;;10431439;28;20299;-81
2021/06/07 09:21:44;;;;;;;1.50;1.40;;;25.00;40.90;;;;;;10440439;28;20255;-80
2021/06/07 09:26:49;;;;;;;1.30;1.30;;;25.10;41.00;;;;;;10430836;28;20231;-80
2021/06/07 09:31:55;;;;;;;1.30;1.30;;;25.10;41.00;;;;;;10433694;28;20665;-80
2021/06/07 09:37:05;;;;;;;1.20;1.20;;;25.20;41.00;;;;;;10426201;28;20217;-79
2021/06/07 09:42:12;;;;;;;1.50;1.40;;;25.30;40.40;;;;;;10426447;28;20231;-80
2021/06/07 09:47:21;;;;;;;1.60;1.27;;;25.30;41.80;;;;;;10435415;28;20665;-80
2021/06/07 09:52:28;;;;;;;1.57;1.37;;;25.40;40.70;;;;;;10435798;28;20224;-79
2021/06/07 09:57:47;;;;;;;1.43;1.40;;;25.40;40.70;;;;;;10426909;28;20736;-83
2021/06/07 10:02:51;;;;;;;3.53;2.00;;;25.50;38.80;;;;;;10436303;28;20323;-82
2021/06/07 10:07:54;;;;;;;2.30;2.20;;;25.60;40.30;;;;;;10437356;28;20256;-83
2021/06/07 10:13:04;;;;;;;2.07;1.97;;;25.60;40.90;;;;;;10432268;28;20232;-83
2021/06/07 10:18:11;;;;;;;2.90;2.67;;;25.60;39.60;;;;;;10441214;28;20320;-76
2021/06/07 10:23:15;;;;;;;3.20;3.00;;;25.60;40.00;;;;;;10433805;28;20229;-78
2021/06/07 10:28:24;;;;;;;2.73;2.53;;;25.60;40.30;;;;;;10434027;28;20717;-78
2021/06/07 10:33:33;;;;;;;2.70;2.60;;;25.60;39.80;;;;;;10436937;28;20316;-81
2021/06/07 10:38:37;;;;;;;2.07;1.63;;;25.60;39.40;;;;;;10441676;28;20329;-81
2021/06/07 10:43:43;;;;;;;1.90;1.80;;;25.60;40.20;;;;;;10448227;28;20320;-81
2021/06/07 10:48:50;;;;;;;1.90;1.60;;;25.70;38.70;;;;;;10437703;28;20229;-76
2021/06/07 10:53:54;;;;;;;1.37;1.37;;;25.70;39.20;;;;;;10432409;28;20315;-76
2021/06/07 10:58:58;;;;;;;2.40;1.60;;;25.80;39.50;;;;;;10444965;28;20213;-75
2021/06/07 11:04:03;;;;;;;1.70;1.60;;;25.90;39.40;;;;;;10431082;28;20234;-76
2021/06/07 11:09:07;;;;;;;1.93;1.83;;;26.00;39.00;;;;;;10432641;28;20225;-76
2021/06/07 11:14:10;;;;;;;1.97;1.87;;;26.20;38.40;;;;;;10427674;28;20260;-76
2021/06/07 11:19:16;;;;;;;1.80;1.70;;;26.40;38.60;;;;;;10406304;28;20228;-77
2021/06/07 11:24:27;;;;;;;2.20;2.10;;;26.40;38.00;;;;;;10431139;28;20229;-76
2021/06/07 11:30:08;;;;;;;1.80;1.70;;;26.50;36.00;;;;;;10444700;28;20229;-77
2021/06/07 11:35:40;;;;;;;2.30;2.20;;;26.50;36.60;;;;;;10429409;28;20260;-76
2021/06/07 11:40:42;;;;;;;1.93;1.83;;;26.70;36.90;;;;;;10427521;28;20249;-77
2021/06/07 11:45:45;;;;;;;2.10;2.00;;;26.70;37.60;;;;;;10429207;28;20221;-76
2021/06/07 11:50:49;;;;;;;2.17;2.07;;;26.80;37.40;;;;;;10436193;28;20282;-76
2021/06/07 11:55:54;;;;;;;2.10;2.00;;;26.90;36.20;;;;;;10439775;28;20232;-78
2021/06/07 12:01:01;;;;;;;2.13;2.03;;;27.00;36.10;;;;;;10443260;28;20260;-77
2021/06/07 12:06:08;;;;;;;2.10;2.00;;;27.00;36.10;;;;;;10432378;28;20317;-77
2021/06/07 12:11:11;;;;;;;2.10;2.00;;;27.10;35.80;;;;;;10434304;28;20233;-84
2021/06/07 12:16:16;;;;;;;2.20;2.10;;;27.20;36.60;;;;;;10430176;28;20283;-80
2021/06/07 12:21:22;;;;;;;2.30;2.10;;;27.20;36.00;;;;;;10442419;28;20278;-80
2021/06/07 12:32:08;;;;;;;2.47;2.37;;;27.40;35.80;;;;;;10434664;28;20244;-83
2021/06/07 12:37:26;;;;;;;2.30;2.20;;;27.50;34.40;;;;;;10433816;28;20213;-85
2021/06/07 12:42:33;;;;;;;2.20;2.10;;;27.50;34.60;;;;;;10434984;28;20733;-84
2021/06/07 12:47:35;;;;;;;2.23;2.13;;;27.60;33.90;;;;;;10441335;28;20317;-84
2021/06/07 12:52:40;;;;;;;2.13;2.03;;;27.60;35.00;;;;;;10440449;28;20225;-84
2021/06/07 12:57:43;;;;;;;2.40;2.30;;;27.70;34.40;;;;;;10432789;28;20958;-84
2021/06/07 13:02:46;;;;;;;2.50;2.40;;;27.80;34.70;;;;;;10434888;28;20228;-75
2021/06/07 13:08:12;;;;;;;2.20;2.10;;;27.90;34.60;;;;;;10430503;28;20311;-85
2021/06/07 13:13:22;;;;;;;2.30;2.20;;;28.00;33.20;;;;;;10427611;28;20228;-85
2021/06/07 13:18:25;;;;;;;2.50;2.40;;;28.10;32.40;;;;;;10433383;28;20307;-85
2021/06/07 13:23:38;;;;;;;2.33;2.13;;;28.10;33.70;;;;;;10439511;28;20240;-85
2021/06/07 13:28:43;;;;;;;2.60;2.40;;;28.20;32.40;;;;;;10444936;28;20255;-84
2021/06/07 13:33:49;;;;;;;2.50;2.27;;;28.20;33.40;;;;;;10440797;28;20637;-80
2021/06/07 13:38:59;;;;;;;2.43;2.33;;;28.20;32.90;;;;;;10440222;28;20224;-79
2021/06/07 13:44:01;;;;;;;2.73;2.53;;;28.20;31.80;;;;;;10433811;28;20513;-79
2021/06/07 13:49:15;;;;;;;2.77;2.57;;;28.20;32.70;;;;;;10436972;28;20308;-80
2021/06/07 13:54:19;;;;;;;2.60;2.50;;;28.30;31.50;;;;;;10440486;28;20653;-79
2021/06/07 13:59:22;;;;;;;2.90;2.70;;;28.30;31.80;;;;;;10443376;28;20231;-80
2021/06/07 14:04:24;;;;;;;2.87;2.73;;;28.40;32.10;;;;;;10433189;28;20224;-79
2021/06/07 14:09:30;;;;;;;2.60;2.50;;;28.50;32.50;;;;;;10445685;28;20235;-85
2021/06/07 14:14:33;;;;;;;2.50;2.40;;;28.50;30.50;;;;;;10436279;28;20222;-85
2021/06/07 14:19:35;;;;;;;3.00;2.80;;;28.60;31.90;;;;;;10423526;28;20713;-85
2021/06/07 14:24:42;;;;;;;2.77;2.67;;;28.70;31.70;;;;;;10437299;28;20316;-85
2021/06/07 14:29:46;;;;;;;3.20;3.00;;;28.70;30.60;;;;;;10440482;28;20239;-85
2021/06/07 14:34:50;;;;;;;3.30;3.00;;;28.70;30.60;;;;;;10448177;28;20257;-85
2021/06/07 14:39:54;;;;;;;3.00;2.80;;;28.70;30.60;;;;;;10445917;28;20221;-81
2021/06/07 14:44:57;;;;;;;3.00;2.90;;;28.70;30.20;;;;;;10433309;28;20312;-80
2021/06/07 14:50:00;;;;;;;3.00;2.80;;;28.70;30.60;;;;;;10436312;28;20313;-80
2021/06/07 14:55:07;;;;;;;3.27;3.07;;;28.90;30.80;;;;;;10440196;28;20230;-71
2021/06/07 15:00:12;;;;;;;2.90;2.80;;;29.00;29.90;;;;;;10430562;28;20236;-74
2021/06/07 15:05:15;;;;;;;3.00;2.80;;;29.10;30.80;;;;;;10429895;28;20816;-75
2021/06/07 15:10:20;;;;;;;3.30;3.10;;;29.20;30.50;;;;;;10432538;28;20231;-74
2021/06/07 15:15:23;;;;;;;3.30;3.00;;;29.30;29.60;;;;;;10433187;28;20286;-74
2021/06/07 15:20:26;;;;;;;3.20;3.00;;;29.40;30.30;;;;;;10434304;28;20239;-73
2021/06/07 15:25:30;;;;;;;3.37;3.17;;;29.40;30.10;;;;;;10429886;28;20319;-74
2021/06/07 15:30:33;;;;;;;3.30;3.00;;;29.40;29.50;;;;;;10431071;28;20229;-74
2021/06/07 15:35:42;;;;;;;3.13;2.93;;;29.40;30.20;;;;;;10427242;28;20597;-79
2021/06/07 15:40:47;;;;;;;3.37;3.17;;;29.30;28.70;;;;;;10436401;28;20595;-79
2021/06/07 15:45:51;;;;;;;3.30;3.10;;;29.30;28.80;;;;;;10433730;28;20225;-79
2021/06/07 15:50:55;;;;;;;3.40;3.10;;;29.40;29.20;;;;;;10427890;28;20279;-80
2021/06/07 15:56:00;;;;;;;3.40;3.20;;;29.40;28.70;;;;;;10427184;28;20225;-74
2021/06/07 16:01:05;;;;;;;3.07;2.87;;;29.40;28.00;;;;;;10428960;28;20217;-74
2021/06/07 16:06:09;;;;;;;3.10;2.90;;;29.50;28.30;;;;;;10429158;28;20225;-74
2021/06/07 16:11:14;;;;;;;3.40;3.20;;;29.50;28.60;;;;;;10416209;28;20710;-75
2021/06/07 16:16:22;;;;;;;3.17;2.97;;;29.50;28.00;;;;;;10425115;28;20233;-78
2021/06/07 16:21:25;;;;;;;3.43;3.23;;;29.50;28.50;;;;;;10427646;28;20245;-78
2021/06/07 16:26:30;;;;;;;3.60;3.40;;;29.50;28.70;;;;;;10424114;28;20328;-78
2021/06/07 16:31:33;;;;;;;3.40;3.10;;;29.40;28.00;;;;;;10424431;28;20723;-78
2021/06/07 16:36:36;;;;;;;3.33;3.17;;;29.40;28.50;;;;;;10423746;28;20279;-74
2021/06/07 16:41:41;;;;;;;3.27;3.07;;;29.40;28.50;;;;;;10420551;28;20230;-74
2021/06/07 16:46:44;;;;;;;3.27;3.07;;;29.30;28.20;;;;;;10429733;28;20713;-78
2021/06/07 16:51:47;;;;;;;3.50;3.30;;;29.20;28.70;;;;;;10425660;28;20803;-78
2021/06/07 16:56:51;;;;;;;3.27;3.07;;;29.20;28.70;;;;;;10426866;28;20224;-78
2021/06/07 17:01:54;;;;;;;3.70;3.50;;;29.10;28.50;;;;;;10432601;28;20226;-78
2021/06/07 17:06:57;;;;;;;3.50;3.30;;;29.00;29.10;;;;;;10422644;28;20251;-78
2021/06/07 17:12:01;;;;;;;3.57;3.30;;;28.90;29.10;;;;;;10424992;28;20236;-78
2021/06/07 17:17:05;;;;;;;3.60;3.40;;;28.80;29.20;;;;;;10427641;28;20308;-78
2021/06/07 17:22:08;;;;;;;3.60;3.40;;;28.70;29.40;;;;;;10430302;28;20225;-78
2021/06/07 17:27:12;;;;;;;3.20;3.00;;;28.60;29.30;;;;;;10426554;28;20231;-78
2021/06/07 17:32:16;;;;;;;3.57;3.37;;;28.50;29.40;;;;;;10429804;28;20259;-78
2021/06/07 17:37:18;;;;;;;3.70;3.43;;;28.30;29.60;;;;;;10423067;28;20239;-76
2021/06/07 17:42:23;;;;;;;3.93;3.70;;;28.30;29.90;;;;;;10425495;28;20631;-79
2021/06/07 17:47:26;;;;;;;3.90;3.60;;;28.20;30.00;;;;;;10413451;28;20731;-78
2021/06/07 17:52:29;;;;;;;3.70;3.50;;;28.20;30.30;;;;;;10386176;28;20230;-78
2021/06/07 17:57:33;;;;;;;3.83;3.53;;;28.10;30.30;;;;;;10383857;28;20257;-79
2021/06/07 18:02:36;;;;;;;4.27;3.87;;;28.10;30.30;;;;;;10391359;28;20284;-78
2021/06/07 18:07:41;;;;;;;4.50;3.90;;;28.00;30.20;;;;;;10387466;28;20285;-77
2021/06/07 18:12:46;;;;;;;3.73;3.53;;;27.90;30.10;;;;;;10379712;28;20725;-74
2021/06/07 18:17:51;;;;;;;3.87;3.57;;;27.70;29.80;;;;;;10386837;28;20252;-83
2021/06/07 18:22:54;;;;;;;3.97;3.60;;;27.50;29.60;;;;;;10404911;28;20253;-82
2021/06/07 18:27:59;;;;;;;3.90;3.60;;;27.30;29.70;;;;;;10393199;28;20225;-82
2021/06/07 18:33:02;;;;;;;3.80;3.60;;;27.10;29.80;;;;;;10386938;28;20336;-80
2021/06/07 18:38:05;;;;;;;4.00;3.70;;;27.00;29.70;;;;;;10392154;28;20325;-77
2021/06/07 18:43:11;;;;;;;4.03;3.77;;;26.80;29.60;;;;;;10374572;28;20238;-77
2021/06/07 18:48:17;;;;;;;4.20;3.90;;;26.70;29.60;;;;;;10382751;28;20238;-77
2021/06/07 18:53:21;;;;;;;4.50;4.10;;;26.60;29.50;;;;;;10397856;28;20225;-77
2021/06/07 18:58:26;;;;;;;4.20;3.80;;;26.50;30.00;;;;;;10428447;28;20290;-78
2021/06/07 19:03:29;;;;;;;4.13;3.90;;;26.40;30.10;;;;;;10428338;28;20240;-77
2021/06/07 19:08:32;;;;;;;4.30;4.00;;;26.40;30.40;;;;;;10436317;28;20229;-80
2021/06/07 19:13:37;;;;;;;4.83;4.50;;;26.30;30.40;;;;;;10429603;28;20229;-78
2021/06/07 19:18:39;;;;;;;4.70;4.40;;;26.10;30.30;;;;;;10439636;28;20270;-78
2021/06/07 19:23:42;;;;;;;5.00;4.60;;;26.20;30.50;;;;;;10431085;28;20220;-80
2021/06/07 19:28:46;;;;;;;4.63;4.33;;;26.00;30.40;;;;;;10426934;28;20312;-80
2021/06/07 19:33:49;;;;;;;4.80;4.50;;;26.00;30.40;;;;;;10440524;28;20233;-80
2021/06/07 19:38:52;;;;;;;6.37;4.47;;;25.90;30.60;;;;;;10434772;28;20752;-80
2021/06/07 19:43:56;;;;;;;5.20;4.70;;;25.80;30.70;;;;;;10432156;28;20253;-77
2021/06/07 19:49:02;;;;;;;4.70;4.30;;;25.70;30.70;;;;;;10435060;28;20228;-77
2021/06/07 19:54:06;;;;;;;4.90;4.60;;;25.70;30.80;;;;;;10433597;28;20835;-77
2021/06/07 19:59:10;;;;;;;4.60;4.20;;;25.60;30.80;;;;;;10426766;28;20226;-78
2021/06/07 20:04:13;;;;;;;4.80;4.50;;;25.50;31.20;;;;;;10421730;28;20880;-78
2021/06/07 20:09:16;;;;;;;5.03;4.63;;;25.40;31.20;;;;;;10442998;28;20233;-77
2021/06/07 20:14:20;;;;;;;4.53;4.23;;;25.30;31.60;;;;;;10425537;28;20332;-79
2021/06/07 20:19:23;;;;;;;5.40;5.00;;;25.20;31.60;;;;;;10425089;28;20576;-78
2021/06/07 20:24:26;;;;;;;4.93;4.63;;;25.10;31.70;;;;;;10429428;28;20311;-78
2021/06/07 20:29:30;;;;;;;4.80;4.43;;;25.00;31.70;;;;;;10441700;28;20308;-78
2021/06/07 20:34:33;;;;;;;4.80;4.50;;;24.90;31.90;;;;;;10435608;28;20746;-78
2021/06/07 20:39:36;;;;;;;5.20;4.70;;;24.80;31.80;;;;;;10437996;28;20225;-78
2021/06/07 20:44:40;;;;;;;4.53;4.20;;;24.70;32.00;;;;;;10437634;28;20225;-78
2021/06/07 20:49:43;;;;;;;4.90;4.60;;;24.60;32.30;;;;;;10443038;28;20216;-79
2021/06/07 20:54:46;;;;;;;5.07;4.77;;;24.50;32.30;;;;;;10442213;28;20252;-78
2021/06/07 20:59:50;;;;;;;5.50;5.10;;;24.50;32.50;;;;;;10437252;28;20721;-82
2021/06/07 21:04:53;;;;;;;4.93;4.47;;;24.40;32.80;;;;;;10431934;28;20656;-77
2021/06/07 21:09:57;;;;;;;6.13;5.73;;;24.30;32.60;;;;;;10434144;28;20367;-77
2021/06/07 21:15:02;;;;;;;4.83;4.53;;;24.20;32.60;;;;;;10429737;28;20221;-77
2021/06/07 21:20:08;;;;;;;5.30;4.80;;;24.10;32.90;;;;;;10438892;28;20221;-77
2021/06/07 21:25:12;;;;;;;5.27;4.87;;;24.00;33.20;;;;;;10436059;28;20257;-78
2021/06/07 21:30:18;;;;;;;5.67;5.27;;;23.90;33.20;;;;;;10432660;28;20243;-77
2021/06/07 21:35:21;;;;;;;5.63;5.13;;;23.80;33.60;;;;;;10439140;28;20328;-78
2021/06/07 21:40:24;;;;;;;5.47;5.17;;;23.70;33.10;;;;;;10440927;28;20221;-82
2021/06/07 21:45:28;;;;;;;6.40;5.77;;;23.60;33.30;;;;;;10428728;28;20221;-79
2021/06/07 21:50:31;;;;;;;6.50;5.90;;;23.40;33.50;;;;;;10431308;28;20226;-83
2021/06/07 21:55:34;;;;;;;5.77;5.37;;;23.20;33.60;;;;;;10431940;28;20278;-78
2021/06/07 22:00:39;;;;;;;6.33;5.93;;;23.00;33.80;;;;;;10437962;28;20222;-83
2021/06/07 22:05:41;;;;;;;6.47;5.97;;;22.90;34.30;;;;;;10437220;28;20308;-82
2021/06/07 22:10:44;;;;;;;6.13;5.73;;;22.80;34.00;;;;;;10431977;28;20236;-82
2021/06/07 22:15:48;;;;;;;6.73;6.23;;;22.80;34.30;;;;;;10429536;28;20233;-82
2021/06/07 22:20:52;;;;;;;6.23;5.63;;;22.80;35.00;;;;;;10434478;28;20709;-83
2021/06/07 22:25:56;;;;;;;6.47;5.97;;;22.80;34.90;;;;;;10448251;28;20244;-82
2021/06/07 22:31:00;;;;;;;6.50;6.10;;;22.70;35.10;;;;;;10442727;28;20308;-82
2021/06/07 22:36:04;;;;;;;6.47;5.87;;;22.60;35.20;;;;;;10433202;28;20229;-82
2021/06/07 22:41:07;;;;;;;6.63;6.23;;;22.50;35.20;;;;;;10441328;28;20229;-82
2021/06/07 22:46:12;;;;;;;7.10;6.60;;;22.40;35.10;;;;;;10445099;28;20256;-79
2021/06/07 22:51:15;;;;;;;7.10;6.50;;;22.30;35.70;;;;;;10438224;28;20237;-79
2021/06/07 22:56:17;;;;;;;7.23;6.73;;;22.20;35.40;;;;;;10434704;28;20312;-78
2021/06/07 23:01:22;;;;;;;7.00;6.40;;;22.20;35.70;;;;;;10446463;28;20253;-78
2021/06/07 23:06:24;;;;;;;6.43;5.93;;;22.10;36.10;;;;;;10446353;28;20225;-78
2021/06/07 23:11:27;;;;;;;6.67;6.17;;;22.00;35.90;;;;;;10440998;28;20228;-78
2021/06/07 23:16:32;;;;;;;7.07;6.47;;;22.00;35.90;;;;;;10437524;28;20757;-78
2021/06/07 23:21:34;;;;;;;7.10;6.63;;;22.00;36.40;;;;;;10444808;28;20229;-78
2021/06/07 23:26:37;;;;;;;6.10;5.70;;;22.00;36.00;;;;;;10439655;28;20225;-78
2021/06/07 23:31:41;;;;;;;7.73;7.03;;;22.00;36.00;;;;;;10445802;28;20232;-78
2021/06/07 23:36:44;;;;;;;6.47;6.07;;;22.00;36.80;;;;;;10443832;28;20845;-78
2021/06/07 23:41:47;;;;;;;7.43;6.93;;;21.90;36.20;;;;;;10444293;28;20221;-79
2021/06/07 23:46:51;;;;;;;7.13;6.63;;;21.90;36.40;;;;;;10439608;28;20303;-78
2021/06/07 23:51:54;;;;;;;7.60;6.90;;;21.90;36.90;;;;;;10421239;28;20257;-78
2021/06/07 23:56:57;;;;;;;7.50;6.90;;;21.90;36.70;;;;;;10439468;28;20225;-78
